createdAt,value
2023-05-09T00:02:16.329Z,2.70
2023-05-09T00:04:43.109Z,3.20
2023-05-09T00:07:10.618Z,3.00
2023-05-09T00:09:37.369Z,2.88
2023-05-09T00:12:04.320Z,2.72
2023-05-09T00:14:33.518Z,2.80
2023-05-09T00:17:00.853Z,2.40
2023-05-09T00:19:27.590Z,2.70
2023-05-09T00:21:54.461Z,2.70
2023-05-09T00:24:21.209Z,2.90
2023-05-09T00:26:47.905Z,2.65
2023-05-09T00:29:14.587Z,2.60
2023-05-09T00:31:41.255Z,2.80
2023-05-09T00:34:08.005Z,2.67
2023-05-09T00:36:34.671Z,2.75
2023-05-09T00:39:01.649Z,2.60
2023-05-09T00:41:28.360Z,2.50
2023-05-09T00:43:55.002Z,2.72
2023-05-09T00:46:21.851Z,2.70
2023-05-09T00:48:48.577Z,2.40
2023-05-09T00:51:15.715Z,2.80
2023-05-09T00:53:42.601Z,2.67
2023-05-09T00:56:10.032Z,2.50
2023-05-09T00:58:36.774Z,2.53
2023-05-09T01:01:04.450Z,2.60
2023-05-09T01:03:31.704Z,2.63
2023-05-09T01:06:18.082Z,2.75
2023-05-09T01:09:07.367Z,2.50
2023-05-09T01:11:44.641Z,2.50
2023-05-09T01:14:40.783Z,2.60
2023-05-09T01:17:17.325Z,2.65
2023-05-09T01:19:49.928Z,2.55
2023-05-09T01:22:17.431Z,2.70
2023-05-09T01:25:07.456Z,2.40
2023-05-09T01:27:59.757Z,2.50
2023-05-09T01:30:27.653Z,2.22
2023-05-09T01:32:58.082Z,2.70
2023-05-09T01:35:26.349Z,2.35
2023-05-09T01:37:54.840Z,2.28
2023-05-09T01:40:23.044Z,2.30
2023-05-09T01:43:02.783Z,2.58
2023-05-09T01:45:30.149Z,2.20
2023-05-09T01:47:57.901Z,2.30
2023-05-09T01:50:25.228Z,2.40
2023-05-09T01:52:56.428Z,2.15
2023-05-09T01:55:27.813Z,2.42
2023-05-09T01:57:55.198Z,2.30
2023-05-09T02:00:22.363Z,2.20
2023-05-09T02:02:49.558Z,2.17
2023-05-09T02:05:17.420Z,2.20
2023-05-09T02:07:45.878Z,2.40
2023-05-09T02:10:13.261Z,2.45
2023-05-09T02:12:40.066Z,2.47
2023-05-09T02:15:07.777Z,2.40
2023-05-09T02:17:35.083Z,2.30
2023-05-09T02:20:01.734Z,2.30
2023-05-09T02:22:28.508Z,2.60
2023-05-09T02:24:55.376Z,2.17
2023-05-09T02:27:22.278Z,2.22
2023-05-09T02:29:51.921Z,2.10
2023-05-09T02:32:25.976Z,2.22
2023-05-09T02:34:53.631Z,2.20
2023-05-09T02:37:21.434Z,2.28
2023-05-09T02:39:48.531Z,2.10
2023-05-09T02:42:22.422Z,2.20
2023-05-09T02:44:49.137Z,2.10
2023-05-09T02:47:16.042Z,2.35
2023-05-09T02:49:42.713Z,2.28
2023-05-09T02:52:09.465Z,2.05
2023-05-09T02:54:36.237Z,2.08
2023-05-09T02:57:03.124Z,2.50
2023-05-09T02:59:30.287Z,2.10
2023-05-09T03:02:00.713Z,2.30
2023-05-09T03:04:27.568Z,2.25
2023-05-09T03:06:54.393Z,2.15
2023-05-09T03:09:22.124Z,2.22
2023-05-09T03:11:50.150Z,2.20
2023-05-09T03:14:16.974Z,2.15
2023-05-09T03:16:43.617Z,2.08
2023-05-09T03:19:20.611Z,2.10
2023-05-09T03:21:47.330Z,1.90
2023-05-09T03:24:14.380Z,2.20
2023-05-09T03:26:41.136Z,2.38
2023-05-09T03:29:07.880Z,2.13
2023-05-09T03:31:34.738Z,2.30
2023-05-09T03:34:01.577Z,2.00
2023-05-09T03:36:28.890Z,1.92
2023-05-09T03:38:56.201Z,2.17
2023-05-09T03:41:23.590Z,1.95
2023-05-09T03:43:50.270Z,2.10
2023-05-09T03:46:17.099Z,1.85
2023-05-09T03:48:46.295Z,2.08
2023-05-09T03:51:13.861Z,2.20
2023-05-09T03:53:45.703Z,2.15
2023-05-09T03:56:13.366Z,2.10
2023-05-09T03:58:45.866Z,2.00
2023-05-09T04:01:12.997Z,1.90
2023-05-09T04:03:40.518Z,1.88
2023-05-09T04:06:07.801Z,1.80
2023-05-09T04:08:38.161Z,2.10
2023-05-09T04:11:06.108Z,2.08
2023-05-09T04:13:33.934Z,1.83
2023-05-09T04:16:05.440Z,1.77
2023-05-09T04:18:33.614Z,1.88
2023-05-09T04:21:00.548Z,1.90
2023-05-09T04:23:27.508Z,2.03
2023-05-09T04:25:57.778Z,2.20
2023-05-09T04:28:25.079Z,2.05
2023-05-09T04:30:54.160Z,2.30
2023-05-09T04:33:21.448Z,2.15
2023-05-09T04:35:50.083Z,2.05
2023-05-09T04:38:16.942Z,2.40
2023-05-09T04:40:43.890Z,2.30
2023-05-09T04:43:10.703Z,2.10
2023-05-09T04:45:37.376Z,2.30
2023-05-09T04:48:04.344Z,2.30
2023-05-09T04:50:31.458Z,2.15
2023-05-09T04:52:58.130Z,2.45
2023-05-09T04:55:24.876Z,2.60
2023-05-09T04:57:51.590Z,2.20
2023-05-09T05:00:19.437Z,2.30
2023-05-09T05:02:47.868Z,2.40
2023-05-09T05:05:15.031Z,2.17
2023-05-09T05:07:43.287Z,2.25
2023-05-09T05:10:13.572Z,2.10
2023-05-09T05:12:43.687Z,2.25
2023-05-09T05:15:13.332Z,2.28
2023-05-09T05:17:41.657Z,2.22
2023-05-09T05:20:10.716Z,2.00
2023-05-09T05:22:41.735Z,2.33
2023-05-09T05:25:09.043Z,2.00
2023-05-09T05:27:37.185Z,2.20
2023-05-09T05:30:05.113Z,2.20
2023-05-09T05:32:31.893Z,2.30
2023-05-09T05:34:59.058Z,1.90
2023-05-09T05:37:26.054Z,2.10
2023-05-09T05:39:52.890Z,2.20
2023-05-09T05:42:19.643Z,2.08
2023-05-09T05:44:46.385Z,1.95
2023-05-09T05:47:13.414Z,2.38
2023-05-09T05:49:41.361Z,2.10
2023-05-09T05:52:08.903Z,2.17
2023-05-09T05:54:36.067Z,2.10
2023-05-09T05:57:02.776Z,2.40
2023-05-09T05:59:29.746Z,2.10
2023-05-09T06:01:57.240Z,2.10
2023-05-09T06:04:24.162Z,2.33
2023-05-09T06:06:51.090Z,2.10
2023-05-09T06:09:17.730Z,1.90
2023-05-09T06:11:44.447Z,2.30
2023-05-09T06:14:11.124Z,2.00
2023-05-09T06:16:37.988Z,2.40
2023-05-09T06:19:04.695Z,2.30
2023-05-09T06:21:31.486Z,2.05
2023-05-09T06:24:09.719Z,2.38
2023-05-09T06:26:39.062Z,2.30
2023-05-09T06:29:08.676Z,2.33
2023-05-09T06:31:39.137Z,2.25
2023-05-09T06:34:06.400Z,2.20
2023-05-09T06:36:33.606Z,2.20
2023-05-09T06:39:00.453Z,2.10
2023-05-09T06:41:27.160Z,2.22
2023-05-09T06:43:53.878Z,2.38
2023-05-09T06:46:20.628Z,1.90
2023-05-09T06:48:47.422Z,2.20
2023-05-09T06:51:14.147Z,2.42
2023-05-09T06:53:40.828Z,2.22
2023-05-09T06:56:07.685Z,2.22
2023-05-09T06:58:34.348Z,2.30
2023-05-09T07:01:01.044Z,2.53
2023-05-09T07:03:27.666Z,2.22
2023-05-09T07:05:56.808Z,2.10
2023-05-09T07:08:23.498Z,2.25
2023-05-09T07:10:50.296Z,2.10
2023-05-09T07:13:17.024Z,2.15
2023-05-09T07:15:43.954Z,2.33
2023-05-09T07:18:10.864Z,2.10
2023-05-09T07:20:37.696Z,2.20
2023-05-09T07:23:04.832Z,2.08
2023-05-09T07:25:31.756Z,2.30
2023-05-09T07:27:58.911Z,2.42
2023-05-09T07:30:25.794Z,2.20
2023-05-09T07:32:52.790Z,2.20
2023-05-09T07:35:20.052Z,2.33
2023-05-09T07:37:46.853Z,2.30
2023-05-09T07:40:14.050Z,2.35
2023-05-09T07:42:40.977Z,2.42
2023-05-09T07:45:08.072Z,2.10
2023-05-09T07:47:34.918Z,2.38
2023-05-09T07:50:01.819Z,2.30
2023-05-09T07:52:28.443Z,2.30
2023-05-09T07:54:55.202Z,2.47
2023-05-09T07:57:22.819Z,2.20
2023-05-09T07:59:49.481Z,2.20
2023-05-09T08:02:16.167Z,2.17
2023-05-09T08:04:42.918Z,2.45
2023-05-09T08:07:09.692Z,2.30
2023-05-09T08:09:36.601Z,2.22
2023-05-09T08:12:03.441Z,2.40
2023-05-09T08:14:30.370Z,2.30
2023-05-09T08:16:57.107Z,2.00
2023-05-09T08:19:26.218Z,2.20
2023-05-09T08:21:53.412Z,2.00
2023-05-09T08:24:20.548Z,2.60
2023-05-09T08:26:47.248Z,2.33
2023-05-09T08:29:14.009Z,2.30
2023-05-09T08:31:41.207Z,2.50
2023-05-09T08:34:07.949Z,2.35
2023-05-09T08:36:34.806Z,2.13
2023-05-09T08:39:01.462Z,2.33
2023-05-09T08:41:28.241Z,2.30
2023-05-09T08:43:55.625Z,2.40
2023-05-09T08:46:29.748Z,2.40
2023-05-09T08:48:57.058Z,2.28
2023-05-09T08:51:24.003Z,1.90
2023-05-09T08:53:51.170Z,2.38
2023-05-09T08:56:17.961Z,2.10
2023-05-09T08:58:45.080Z,2.28
2023-05-09T09:01:14.256Z,2.22
2023-05-09T09:03:47.570Z,2.10
2023-05-09T09:06:14.453Z,2.13
2023-05-09T09:08:42.152Z,2.33
2023-05-09T09:11:12.576Z,2.20
2023-05-09T09:13:41.114Z,2.20
2023-05-09T09:16:12.525Z,2.20
2023-05-09T09:18:39.966Z,2.10
2023-05-09T09:21:09.368Z,2.10
2023-05-09T09:23:37.750Z,2.30
2023-05-09T09:26:05.009Z,2.15
2023-05-09T09:28:31.847Z,2.13
2023-05-09T09:30:58.482Z,2.00
2023-05-09T09:33:26.645Z,2.25
2023-05-09T09:35:55.485Z,2.20
2023-05-09T09:38:23.346Z,2.22
2023-05-09T09:40:56.814Z,2.20
2023-05-09T09:43:31.180Z,2.20
2023-05-09T09:46:02.675Z,2.20
2023-05-09T09:48:34.319Z,2.08
2023-05-09T09:51:10.028Z,2.13
2023-05-09T09:53:41.436Z,2.20
2023-05-09T09:56:09.222Z,2.28
2023-05-09T09:58:36.316Z,2.00
2023-05-09T10:01:10.321Z,2.42
2023-05-09T10:03:41.806Z,2.20
2023-05-09T10:06:16.052Z,2.22
2023-05-09T10:08:44.050Z,2.05
2023-05-09T10:11:10.999Z,2.42
2023-05-09T10:13:38.603Z,2.10
2023-05-09T10:16:06.515Z,2.30
2023-05-09T10:18:34.019Z,2.45
2023-05-09T10:21:05.310Z,2.30
2023-05-09T10:23:34.951Z,2.03
2023-05-09T10:26:28.980Z,2.20
2023-05-09T10:28:57.354Z,2.00
2023-05-09T10:31:28.496Z,2.30
2023-05-09T10:33:58.779Z,2.20
2023-05-09T10:36:25.531Z,2.05
2023-05-09T10:38:55.612Z,2.00
2023-05-09T10:41:23.768Z,1.90
2023-05-09T10:43:50.620Z,2.17
2023-05-09T10:46:17.847Z,2.13
2023-05-09T10:48:45.162Z,2.10
2023-05-09T10:51:12.677Z,2.13
2023-05-09T10:53:49.848Z,2.28
2023-05-09T10:56:23.276Z,2.20
2023-05-09T10:58:49.999Z,2.13
2023-05-09T11:01:28.917Z,2.00
2023-05-09T11:03:57.342Z,2.20
2023-05-09T11:06:52.121Z,2.30
2023-05-09T11:09:28.746Z,2.20
2023-05-09T11:12:01.729Z,2.10
2023-05-09T11:14:37.977Z,2.08
2023-05-09T11:17:09.435Z,2.00
2023-05-09T11:19:39.245Z,2.20
2023-05-09T11:22:16.973Z,1.85
2023-05-09T11:24:48.713Z,1.90
2023-05-09T11:27:22.749Z,2.20
2023-05-09T11:29:56.310Z,2.00
2023-05-09T11:32:28.552Z,2.10
2023-05-09T11:35:09.523Z,2.08
2023-05-09T11:37:55.165Z,2.10
2023-05-09T11:40:22.772Z,2.00
2023-05-09T11:42:55.463Z,2.00
2023-05-09T11:45:27.188Z,2.10
2023-05-09T11:47:54.273Z,2.00
2023-05-09T11:50:21.677Z,2.00
2023-05-09T11:52:49.168Z,2.03
2023-05-09T11:55:18.835Z,2.10
2023-05-09T11:57:51.148Z,1.83
2023-05-09T12:00:22.657Z,1.98
2023-05-09T12:02:51.139Z,2.00
2023-05-09T12:05:19.983Z,2.20
2023-05-09T12:07:47.160Z,2.10
2023-05-09T12:10:16.526Z,1.83
2023-05-09T12:12:48.993Z,2.10
2023-05-09T12:15:17.049Z,2.10
2023-05-09T12:17:45.011Z,2.10
2023-05-09T12:20:12.249Z,1.90
2023-05-09T12:22:43.145Z,2.00
2023-05-09T12:25:11.823Z,1.92
2023-05-09T12:27:40.171Z,1.70
2023-05-09T12:30:12.023Z,1.80
2023-05-09T12:32:40.507Z,2.00
2023-05-09T12:35:10.256Z,1.90
2023-05-09T12:37:37.091Z,1.80
2023-05-09T12:40:12.374Z,1.83
2023-05-09T12:42:39.570Z,2.20
2023-05-09T12:45:08.638Z,2.00
2023-05-09T12:47:35.542Z,1.98
2023-05-09T12:50:04.321Z,1.75
2023-05-09T12:52:46.620Z,1.88
2023-05-09T12:55:21.305Z,2.10
2023-05-09T12:58:03.825Z,1.77
2023-05-09T13:00:42.816Z,1.98
2023-05-09T13:03:32.749Z,2.05
2023-05-09T13:06:01.615Z,2.03
2023-05-09T13:08:29.191Z,1.92
2023-05-09T13:11:07.880Z,1.73
2023-05-09T13:13:35.227Z,1.63
2023-05-09T13:16:03.802Z,1.90
2023-05-09T13:18:30.844Z,1.70
2023-05-09T13:20:57.495Z,1.65
2023-05-09T13:23:24.180Z,1.60
2023-05-09T13:25:51.479Z,2.00
2023-05-09T13:28:18.261Z,2.00
2023-05-09T13:30:45.826Z,1.70
2023-05-09T13:33:24.533Z,1.77
2023-05-09T13:35:52.874Z,1.75
2023-05-09T13:38:19.572Z,1.92
2023-05-09T13:40:46.402Z,2.00
2023-05-09T13:43:13.049Z,1.90
2023-05-09T13:45:39.789Z,1.80
2023-05-09T13:48:06.702Z,1.92
2023-05-09T13:50:34.125Z,1.80
2023-05-09T13:53:00.831Z,1.85
2023-05-09T13:55:27.800Z,1.90
2023-05-09T13:57:54.930Z,1.90
2023-05-09T14:00:22.247Z,1.92
2023-05-09T14:02:49.033Z,1.80
2023-05-09T14:05:16.894Z,1.80
2023-05-09T14:07:43.692Z,1.70
2023-05-09T14:10:12.452Z,1.65
2023-05-09T14:12:40.206Z,1.88
2023-05-09T14:15:08.017Z,1.80
2023-05-09T14:17:34.779Z,1.67
2023-05-09T14:20:01.530Z,1.65
2023-05-09T14:22:28.271Z,1.55
2023-05-09T14:24:57.422Z,1.80
2023-05-09T14:27:25.151Z,1.58
2023-05-09T14:29:52.052Z,1.60
2023-05-09T14:32:18.803Z,1.60
2023-05-09T14:34:45.898Z,1.60
2023-05-09T14:37:15.256Z,1.60
2023-05-09T14:39:42.585Z,1.52
2023-05-09T14:42:11.675Z,1.60
2023-05-09T14:44:38.789Z,1.50
2023-05-09T14:47:05.943Z,1.60
2023-05-09T14:49:33.162Z,1.70
2023-05-09T14:52:00.202Z,1.50
2023-05-09T14:54:27.263Z,1.70
2023-05-09T14:56:53.952Z,1.70
2023-05-09T14:59:21.117Z,1.80
2023-05-09T15:01:47.917Z,1.75
2023-05-09T15:04:14.643Z,1.70
2023-05-09T15:06:41.294Z,1.50
2023-05-09T15:09:08.442Z,1.45
2023-05-09T15:11:46.671Z,1.45
2023-05-09T15:14:14.953Z,1.52
2023-05-09T15:16:41.878Z,1.50
2023-05-09T15:19:08.716Z,1.67
2023-05-09T15:21:35.745Z,1.35
2023-05-09T15:24:03.546Z,1.45
2023-05-09T15:26:30.350Z,1.48
2023-05-09T15:28:56.962Z,1.40
2023-05-09T15:31:24.946Z,1.48
2023-05-09T15:33:51.886Z,1.40
2023-05-09T15:36:18.549Z,1.60
2023-05-09T15:38:49.394Z,1.52
2023-05-09T15:41:16.488Z,1.52
2023-05-09T15:43:43.140Z,1.50
2023-05-09T15:46:09.862Z,1.50
2023-05-09T15:48:36.702Z,1.50
2023-05-09T15:51:06.422Z,1.65
2023-05-09T15:53:33.052Z,1.73
2023-05-09T15:56:00.420Z,1.23
2023-05-09T15:58:27.281Z,1.40
2023-05-09T16:00:54.160Z,1.60
2023-05-09T16:03:21.115Z,1.50
2023-05-09T16:05:47.922Z,1.30
2023-05-09T16:08:14.597Z,1.60
2023-05-09T16:10:41.397Z,1.50
2023-05-09T16:13:08.298Z,1.48
2023-05-09T16:15:35.330Z,1.40
2023-05-09T16:18:02.120Z,1.40
2023-05-09T16:20:28.874Z,1.60
2023-05-09T16:22:55.607Z,1.50
2023-05-09T16:25:22.253Z,1.27
2023-05-09T16:27:48.980Z,2.10
2023-05-09T16:30:16.268Z,1.63
2023-05-09T16:32:43.432Z,1.90
2023-05-09T16:35:10.349Z,1.60
2023-05-09T16:37:37.456Z,1.85
2023-05-09T16:40:04.554Z,1.73
2023-05-09T16:42:31.280Z,1.65
2023-05-09T16:44:58.080Z,1.50
2023-05-09T16:47:24.938Z,1.85
2023-05-09T16:49:51.683Z,1.73
2023-05-09T16:52:18.521Z,2.00
2023-05-09T16:54:45.394Z,3.35
2023-05-09T16:57:12.126Z,3.17
2023-05-09T16:59:39.688Z,2.53
2023-05-09T17:02:07.246Z,2.58
2023-05-09T17:04:35.886Z,2.70
2023-05-09T17:07:04.197Z,2.17
2023-05-09T17:09:30.890Z,2.30
2023-05-09T17:11:57.575Z,2.60
2023-05-09T17:14:24.414Z,2.30
2023-05-09T17:16:51.177Z,2.20
2023-05-09T17:19:18.997Z,2.15
2023-05-09T17:21:46.026Z,2.35
2023-05-09T17:24:12.636Z,2.30
2023-05-09T17:26:39.482Z,2.30
2023-05-09T17:29:06.203Z,1.95
2023-05-09T17:31:32.913Z,2.38
2023-05-09T17:33:59.580Z,2.13
2023-05-09T17:36:28.323Z,2.10
2023-05-09T17:38:55.031Z,2.30
2023-05-09T17:41:22.255Z,2.15
2023-05-09T17:43:51.177Z,2.40
2023-05-09T17:46:17.847Z,2.20
2023-05-09T17:48:44.711Z,2.15
2023-05-09T17:51:11.367Z,2.40
2023-05-09T17:53:38.018Z,2.13
2023-05-09T17:56:04.930Z,2.05
2023-05-09T17:58:31.939Z,2.20
2023-05-09T18:00:59.697Z,2.00
2023-05-09T18:03:32.255Z,2.22
2023-05-09T18:06:00.438Z,2.00
2023-05-09T18:08:27.752Z,2.00
2023-05-09T18:10:56.920Z,2.10
2023-05-09T18:13:23.763Z,2.10
2023-05-09T18:15:50.646Z,2.13
2023-05-09T18:18:17.476Z,2.40
2023-05-09T18:20:46.313Z,2.17
2023-05-09T18:23:14.905Z,2.10
2023-05-09T18:25:42.269Z,2.00
2023-05-09T18:28:09.433Z,2.05
2023-05-09T18:30:39.551Z,1.70
2023-05-09T18:33:06.248Z,2.30
2023-05-09T18:35:33.055Z,2.00
2023-05-09T18:37:59.905Z,2.15
2023-05-09T18:40:26.591Z,2.08
2023-05-09T18:42:53.201Z,2.00
2023-05-09T18:45:19.944Z,2.10
2023-05-09T18:47:46.616Z,1.80
2023-05-09T18:50:13.934Z,1.92
2023-05-09T18:52:41.044Z,1.63
2023-05-09T18:55:08.249Z,1.65
2023-05-09T18:57:35.128Z,1.48
2023-05-09T19:00:02.205Z,1.50
2023-05-09T19:02:30.212Z,1.50
2023-05-09T19:04:56.992Z,1.48
2023-05-09T19:07:24.125Z,1.50
2023-05-09T19:09:50.790Z,1.67
2023-05-09T19:12:17.676Z,1.70
2023-05-09T19:14:44.386Z,1.90
2023-05-09T19:17:11.186Z,1.85
2023-05-09T19:19:37.948Z,2.00
2023-05-09T19:22:04.898Z,1.92
2023-05-09T19:24:32.965Z,1.90
2023-05-09T19:26:59.738Z,1.88
2023-05-09T19:29:26.398Z,1.88
2023-05-09T19:31:53.072Z,1.70
2023-05-09T19:34:19.695Z,1.88
2023-05-09T19:36:46.326Z,1.67
2023-05-09T19:39:13.013Z,1.88
2023-05-09T19:41:40.053Z,1.63
2023-05-09T19:44:07.337Z,1.60
2023-05-09T19:46:35.311Z,1.80
2023-05-09T19:49:02.160Z,2.00
2023-05-09T19:51:29.641Z,2.13
2023-05-09T19:53:56.369Z,1.90
2023-05-09T19:56:23.951Z,1.83
2023-05-09T19:58:50.765Z,1.70
2023-05-09T20:01:20.247Z,1.55
2023-05-09T20:03:47.262Z,1.60
2023-05-09T20:06:14.068Z,1.70
2023-05-09T20:08:40.813Z,1.60
2023-05-09T20:11:08.074Z,1.67
2023-05-09T20:13:34.769Z,1.70
2023-05-09T20:16:03.211Z,1.65
2023-05-09T20:18:33.328Z,1.70
2023-05-09T20:21:01.324Z,1.52
2023-05-09T20:23:28.660Z,1.63
2023-05-09T20:25:56.145Z,1.40
2023-05-09T20:28:23.133Z,1.70
2023-05-09T20:30:50.132Z,1.50
2023-05-09T20:33:16.946Z,1.60
2023-05-09T20:35:43.931Z,1.70
2023-05-09T20:38:11.691Z,1.67
2023-05-09T20:40:38.505Z,1.60
2023-05-09T20:43:05.527Z,1.60
2023-05-09T20:45:32.481Z,1.40
2023-05-09T20:47:59.478Z,1.52
2023-05-09T20:50:26.400Z,1.60
2023-05-09T20:52:53.183Z,1.55
2023-05-09T20:55:20.049Z,1.60
2023-05-09T20:57:46.904Z,1.58
2023-05-09T21:00:13.983Z,1.50
2023-05-09T21:02:40.819Z,1.40
2023-05-09T21:05:08.025Z,1.70
2023-05-09T21:07:34.712Z,1.38
2023-05-09T21:10:01.432Z,1.30
2023-05-09T21:12:28.328Z,1.42
2023-05-09T21:14:54.968Z,1.27
2023-05-09T21:17:21.704Z,1.50
2023-05-09T21:19:51.575Z,1.40
2023-05-09T21:22:18.466Z,1.50
2023-05-09T21:24:45.409Z,1.30
2023-05-09T21:27:12.029Z,1.50
2023-05-09T21:29:38.666Z,1.38
2023-05-09T21:32:05.780Z,1.30
2023-05-09T21:34:32.674Z,1.45
2023-05-09T21:36:59.327Z,1.20
2023-05-09T21:39:26.000Z,1.42
2023-05-09T21:41:52.690Z,1.42
2023-05-09T21:44:19.382Z,1.38
2023-05-09T21:46:46.501Z,1.30
2023-05-09T21:49:16.680Z,1.33
2023-05-09T21:51:43.659Z,1.52
2023-05-09T21:54:11.090Z,1.30
2023-05-09T21:56:37.950Z,1.48
2023-05-09T21:59:04.760Z,1.30
2023-05-09T22:01:31.717Z,1.20
2023-05-09T22:03:58.927Z,1.50
2023-05-09T22:06:25.894Z,1.30
2023-05-09T22:08:52.669Z,1.20
2023-05-09T22:11:19.989Z,1.30
2023-05-09T22:13:46.961Z,1.50
2023-05-09T22:16:13.748Z,1.42
2023-05-09T22:18:40.435Z,1.40
2023-05-09T22:21:07.136Z,1.50
2023-05-09T22:23:33.799Z,1.25
2023-05-09T22:26:00.525Z,1.20
2023-05-09T22:28:28.511Z,1.20
2023-05-09T22:30:55.319Z,1.23
2023-05-09T22:33:21.977Z,1.40
2023-05-09T22:35:48.735Z,1.50
2023-05-09T22:38:15.381Z,1.30
2023-05-09T22:40:42.160Z,1.27
2023-05-09T22:43:10.543Z,1.20
2023-05-09T22:45:37.253Z,1.15
2023-05-09T22:48:04.310Z,1.30
2023-05-09T22:50:31.055Z,1.20
2023-05-09T22:52:57.752Z,1.38
2023-05-09T22:55:24.490Z,1.30
2023-05-09T22:57:51.107Z,1.23
2023-05-09T23:00:18.346Z,1.30
2023-05-09T23:02:45.661Z,1.30
2023-05-09T23:05:12.473Z,1.40
2023-05-09T23:07:39.201Z,1.40
2023-05-09T23:10:06.341Z,1.10
2023-05-09T23:12:33.158Z,1.30
2023-05-09T23:14:59.861Z,1.17
2023-05-09T23:17:26.654Z,1.30
2023-05-09T23:19:53.359Z,1.10
2023-05-09T23:22:20.098Z,1.10
2023-05-09T23:24:46.806Z,1.20
2023-05-09T23:27:13.476Z,1.20
2023-05-09T23:29:40.193Z,1.23
2023-05-09T23:32:06.855Z,1.17
2023-05-09T23:34:36.220Z,1.10
2023-05-09T23:37:04.065Z,1.40
2023-05-09T23:39:31.301Z,1.40
2023-05-09T23:41:58.287Z,1.40
2023-05-09T23:44:25.676Z,1.38
2023-05-09T23:46:52.601Z,1.40
2023-05-09T23:49:19.426Z,1.45
2023-05-09T23:51:46.043Z,1.17
2023-05-09T23:54:12.755Z,1.40
2023-05-09T23:56:40.128Z,1.50
2023-05-09T23:59:06.740Z,1.50
